Time;durP1;ratioP1;P1;durP2;ratioP2;P2;SDS_P1;SDS_P2;PMS_P1;PMS_P2;Temp;Humidity;BMP_temperature;BMP_pressure;BME280_temperature;BME280_humidity;BME280_pressure;Samples;Min_cycle;Max_cycle;Signal;HPM_P1;HPM_P2
2022/08/15 00:01:00;;;;;;;11.82;10.88;;;23.90;99.20;;;;;;6348705;22;20002;-80
2022/08/15 00:03:33;;;;;;;14.00;12.95;;;23.90;99.30;;;;;;6361336;22;20054;-80
2022/08/15 00:06:03;;;;;;;14.30;13.00;;;23.80;99.40;;;;;;6362660;22;20035;-81
2022/08/15 00:08:30;;;;;;;;;;;23.80;99.70;;;;;;6365397;22;20017;-81
2022/08/15 00:11:09;;;;;;;15.77;14.43;;;23.70;99.90;;;;;;6366690;22;19902;-82
2022/08/15 00:13:37;;;;;;;14.97;13.67;;;23.70;99.80;;;;;;6366388;22;20002;-83
2022/08/15 00:16:05;;;;;;;15.60;14.05;;;23.60;99.90;;;;;;6363753;22;19999;-81
2022/08/15 00:18:41;;;;;;;16.55;14.85;;;23.50;99.90;;;;;;6364357;22;19978;-81
2022/08/15 00:21:07;;;;;;;16.13;14.70;;;23.60;99.90;;;;;;6345111;22;20343;-81
2022/08/15 00:23:32;;;;;;;17.80;16.20;;;23.60;99.90;;;;;;6312753;22;20022;-81
2022/08/15 00:26:02;;;;;;;15.85;14.52;;;23.70;99.90;;;;;;6341107;22;20422;-83
2022/08/15 00:28:29;;;;;;;14.13;13.13;;;23.40;99.90;;;;;;6310755;22;20029;-82
2022/08/15 00:30:55;;;;;;;15.05;13.65;;;23.40;99.90;;;;;;6339725;22;20033;-82
2022/08/15 00:33:21;;;;;;;14.82;13.50;;;23.40;99.90;;;;;;6338858;22;20300;-82
2022/08/15 00:35:49;;;;;;;14.27;13.07;;;23.40;99.90;;;;;;6337041;22;20374;-83
2022/08/15 00:38:26;;;;;;;12.85;11.82;;;23.30;99.80;;;;;;6338566;22;20007;-80
2022/08/15 00:43:45;;;;;;;11.35;10.43;;;23.40;99.80;;;;;;6338855;22;20074;-82
2022/08/15 00:46:12;;;;;;;10.75;9.82;;;23.50;99.70;;;;;;6339268;22;20006;-80
2022/08/15 00:48:42;;;;;;;11.48;10.20;;;23.50;99.60;;;;;;6338792;22;20609;-82
2022/08/15 00:51:26;;;;;;;12.98;11.88;;;23.50;99.40;;;;;;6314142;22;20010;-82
2022/08/15 00:53:56;;;;;;;12.52;10.18;;;23.60;99.00;;;;;;6340559;22;20002;-82
2022/08/15 00:56:29;;;;;;;10.75;9.95;;;23.60;99.10;;;;;;6339286;22;19998;-82
2022/08/15 00:58:55;;;;;;;10.88;10.02;;;23.60;99.00;;;;;;6340440;22;20018;-82
2022/08/15 01:01:22;;;;;;;10.98;10.00;;;23.70;99.00;;;;;;6340612;22;20310;-82
2022/08/15 01:03:48;;;;;;;11.55;10.55;;;23.60;99.00;;;;;;6339692;22;20091;-82
2022/08/15 01:06:15;;;;;;;12.82;11.80;;;23.60;99.00;;;;;;6339436;22;20038;-82
2022/08/15 01:08:46;;;;;;;13.77;12.55;;;23.70;98.90;;;;;;6340436;22;20009;-82
2022/08/15 01:11:34;;;;;;;14.02;12.77;;;23.70;99.90;;;;;;6338972;22;20301;-81
2022/08/15 01:14:01;;;;;;;12.73;11.65;;;23.60;99.90;;;;;;6340080;22;20081;-82
2022/08/15 01:16:29;;;;;;;14.35;12.95;;;23.60;99.90;;;;;;6338736;22;19999;-82
2022/08/15 01:18:55;;;;;;;13.85;12.32;;;23.60;99.90;;;;;;6340322;22;20011;-81
2022/08/15 01:22:00;;;;;;;12.70;11.63;;;23.50;99.90;;;;;;6339949;22;20006;-81
2022/08/15 01:24:44;;;;;;;14.93;13.70;;;23.50;99.90;;;;;;6334651;22;20322;-81
2022/08/15 01:27:10;;;;;;;12.50;11.50;;;23.50;99.90;;;;;;6339759;22;20006;-81
2022/08/15 01:29:36;;;;;;;12.55;11.40;;;23.60;99.90;;;;;;6340512;22;20457;-81
2022/08/15 01:32:01;;;;;;;12.00;10.98;;;23.50;99.90;;;;;;6340024;22;20010;-81
2022/08/15 01:34:27;;;;;;;12.77;11.70;;;23.50;99.90;;;;;;6341612;22;20064;-81
2022/08/15 01:36:52;;;;;;;11.27;10.38;;;23.60;99.60;;;;;;6342872;22;20006;-81
2022/08/15 01:39:40;;;;;;;10.52;9.68;;;23.60;99.70;;;;;;6339999;22;20476;-81
2022/08/15 01:42:23;;;;;;;10.95;10.10;;;23.60;99.80;;;;;;6340673;22;20003;-81
2022/08/15 01:44:54;;;;;;;12.75;11.65;;;23.70;99.90;;;;;;6339543;22;20114;-81
2022/08/15 01:47:36;;;;;;;16.08;14.32;;;23.70;99.90;;;;;;6339801;22;19995;-81
2022/08/15 01:50:26;;;;;;;17.33;14.80;;;23.80;99.90;;;;;;6339455;22;20414;-83
2022/08/15 01:52:51;;;;;;;;;;;23.80;99.90;;;;;;6339696;22;20023;-82
2022/08/15 01:55:22;;;;;;;16.02;14.63;;;23.80;99.90;;;;;;6340230;22;19899;-83
2022/08/15 01:57:48;;;;;;;15.10;13.82;;;23.80;99.90;;;;;;6340279;22;20091;-83
2022/08/15 02:00:15;;;;;;;15.10;13.68;;;23.70;99.90;;;;;;6338918;22;20041;-83
2022/08/15 02:02:41;;;;;;;15.02;13.68;;;23.70;99.90;;;;;;6340641;22;20051;-83
2022/08/15 02:05:07;;;;;;;14.93;13.40;;;23.60;99.90;;;;;;6340634;22;20069;-82
2022/08/15 02:07:34;;;;;;;15.63;13.13;;;23.60;99.80;;;;;;6339799;22;20003;-82
2022/08/15 02:10:01;;;;;;;15.27;13.60;;;23.60;99.90;;;;;;6340688;22;20033;-81
2022/08/15 02:12:34;;;;;;;15.27;14.05;;;23.50;99.90;;;;;;6339146;22;19998;-83
2022/08/15 02:15:03;;;;;;;18.25;15.80;;;23.40;99.90;;;;;;6340033;22;20459;-82
2022/08/15 02:17:29;;;;;;;16.73;14.97;;;23.40;99.90;;;;;;6339430;22;20064;-82
2022/08/15 02:19:54;;;;;;;17.25;14.52;;;23.30;99.90;;;;;;6339371;22;20446;-82
2022/08/15 02:22:23;;;;;;;12.77;11.73;;;23.50;99.90;;;;;;6340799;22;20132;-83
2022/08/15 02:24:49;;;;;;;13.95;12.85;;;23.20;99.90;;;;;;6341025;22;20560;-82
2022/08/15 02:27:15;;;;;;;13.80;12.57;;;23.20;99.90;;;;;;6339266;22;20002;-83
2022/08/15 02:29:42;;;;;;;13.45;11.98;;;23.10;99.90;;;;;;6339696;22;20113;-84
2022/08/15 02:32:13;;;;;;;14.80;13.45;;;23.00;99.90;;;;;;6338856;22;20002;-83
2022/08/15 02:34:41;;;;;;;14.73;13.35;;;23.10;99.90;;;;;;6339750;22;20010;-83
2022/08/15 02:37:08;;;;;;;14.70;13.60;;;22.90;99.90;;;;;;6340765;22;20006;-83
2022/08/15 02:39:34;;;;;;;15.20;13.80;;;22.90;99.90;;;;;;6343190;22;20330;-83
2022/08/15 02:42:00;;;;;;;14.30;12.80;;;22.80;99.90;;;;;;6342841;22;19999;-81
2022/08/15 02:44:26;;;;;;;13.73;12.52;;;22.90;99.90;;;;;;6339430;22;20044;-82
2022/08/15 02:46:54;;;;;;;14.80;12.40;;;22.80;99.90;;;;;;6339942;22;20010;-83
2022/08/15 02:49:22;;;;;;;11.27;10.38;;;22.90;99.90;;;;;;6338352;22;20322;-83
2022/08/15 02:51:49;;;;;;;12.05;10.95;;;22.90;99.80;;;;;;6339577;22;20456;-80
2022/08/15 02:54:16;;;;;;;10.43;9.43;;;23.10;99.60;;;;;;6339592;22;20008;-82
2022/08/15 02:56:42;;;;;;;11.45;9.02;;;23.10;99.30;;;;;;6339412;22;19995;-82
2022/08/15 02:59:08;;;;;;;14.02;9.75;;;23.20;99.20;;;;;;6352898;22;20033;-81
2022/08/15 03:01:37;;;;;;;9.85;9.05;;;23.10;98.90;;;;;;6357455;22;20441;-82
2022/08/15 03:04:06;;;;;;;10.60;9.63;;;23.20;98.70;;;;;;6353293;22;20062;-81
2022/08/15 03:06:33;;;;;;;11.82;10.75;;;23.10;99.40;;;;;;6352394;22;20430;-81
2022/08/15 03:09:04;;;;;;;11.18;9.82;;;23.00;99.80;;;;;;6351715;22;20002;-82
2022/08/15 03:11:30;;;;;;;8.52;7.82;;;23.00;98.90;;;;;;6354140;22;20025;-81
2022/08/15 03:13:56;;;;;;;8.30;7.00;;;23.00;98.50;;;;;;6353684;22;20029;-81
2022/08/15 03:16:21;;;;;;;9.02;7.78;;;23.10;98.20;;;;;;6350232;22;19999;-81
2022/08/15 03:18:49;;;;;;;8.95;7.95;;;23.10;98.30;;;;;;6354426;22;20318;-81
2022/08/15 03:21:19;;;;;;;10.48;6.95;;;23.10;98.20;;;;;;6355805;22;20025;-80
2022/08/15 03:23:48;;;;;;;6.95;6.45;;;23.00;97.80;;;;;;6347226;22;20090;-82
2022/08/15 03:26:18;;;;;;;16.30;7.75;;;23.10;97.80;;;;;;6338689;22;20002;-82
2022/08/15 03:28:47;;;;;;;7.95;6.88;;;23.10;97.90;;;;;;6339230;22;20082;-82
2022/08/15 03:31:13;;;;;;;8.05;7.25;;;23.00;98.10;;;;;;6337963;22;20312;-82
2022/08/15 03:33:41;;;;;;;7.57;6.80;;;23.00;98.00;;;;;;6339103;22;20006;-80
2022/08/15 03:36:08;;;;;;;7.85;7.13;;;23.00;98.00;;;;;;6338609;22;19999;-81
2022/08/15 03:38:34;;;;;;;10.35;7.93;;;22.90;98.40;;;;;;6337968;22;20125;-82
2022/08/15 03:41:00;;;;;;;8.93;8.13;;;22.90;98.80;;;;;;6338750;22;20450;-83
2022/08/15 03:43:30;;;;;;;8.80;7.90;;;22.80;99.00;;;;;;6338493;22;20009;-81
2022/08/15 03:46:03;;;;;;;11.57;8.05;;;22.80;99.30;;;;;;6338882;22;20328;-80
2022/08/15 03:48:37;;;;;;;9.45;8.70;;;22.60;99.30;;;;;;6339239;22;20366;-82
2022/08/15 03:51:03;;;;;;;16.42;10.45;;;22.60;99.50;;;;;;6338761;22;20327;-82
2022/08/15 03:53:32;;;;;;;11.88;10.85;;;22.60;99.90;;;;;;6338254;22;19998;-82
2022/08/15 03:56:01;;;;;;;11.05;9.93;;;22.60;99.90;;;;;;6338793;22;20002;-82
2022/08/15 03:58:29;;;;;;;12.50;9.05;;;22.50;99.90;;;;;;6337169;22;19991;-80
2022/08/15 04:00:54;;;;;;;10.13;9.38;;;22.50;99.90;;;;;;6338730;22;20563;-81
2022/08/15 04:03:23;;;;;;;9.80;9.00;;;22.50;99.90;;;;;;6339022;22;20002;-82
2022/08/15 04:05:55;;;;;;;9.65;8.70;;;22.40;99.70;;;;;;6337867;22;20003;-82
2022/08/15 04:08:22;;;;;;;9.52;8.70;;;22.50;99.60;;;;;;6338100;22;20439;-81
2022/08/15 04:10:51;;;;;;;8.45;7.65;;;22.50;99.20;;;;;;6338393;22;20003;-81
2022/08/15 04:13:19;;;;;;;7.80;7.20;;;22.40;99.20;;;;;;6337106;22;20088;-80
2022/08/15 04:15:49;;;;;;;7.60;7.07;;;22.40;99.30;;;;;;6338466;22;20014;-81
2022/08/15 04:18:14;;;;;;;8.50;7.83;;;22.30;99.30;;;;;;6338083;22;20003;-81
2022/08/15 04:20:41;;;;;;;7.65;7.05;;;22.30;99.00;;;;;;6337583;22;20462;-82
2022/08/15 04:23:07;;;;;;;6.50;6.07;;;22.30;99.10;;;;;;6338392;22;19999;-79
2022/08/15 04:25:36;;;;;;;6.90;6.30;;;22.30;99.00;;;;;;6341528;22;20042;-82
2022/08/15 04:28:04;;;;;;;7.43;6.68;;;22.40;98.80;;;;;;6340476;22;20412;-81
2022/08/15 04:30:36;;;;;;;6.20;5.70;;;22.50;98.70;;;;;;6340346;22;20026;-82
2022/08/15 04:33:13;;;;;;;7.53;6.38;;;22.50;98.60;;;;;;6341252;22;19999;-82
2022/08/15 04:35:41;;;;;;;7.15;6.53;;;22.50;98.60;;;;;;6341267;22;20356;-82
2022/08/15 04:38:06;;;;;;;6.10;5.50;;;22.50;98.40;;;;;;6342047;22;20002;-80
2022/08/15 04:40:33;;;;;;;9.32;5.55;;;22.50;98.50;;;;;;6342640;22;20011;-82
2022/08/15 04:42:59;;;;;;;5.57;5.07;;;22.50;98.60;;;;;;6341908;22;20094;-82
2022/08/15 04:45:26;;;;;;;7.75;4.82;;;22.40;98.50;;;;;;6341794;22;20014;-82
2022/08/15 04:47:52;;;;;;;5.63;4.60;;;22.40;98.50;;;;;;6341553;22;19998;-82
2022/08/15 04:50:18;;;;;;;8.65;4.38;;;22.40;98.10;;;;;;6343172;22;20010;-81
2022/08/15 04:52:47;;;;;;;4.88;3.83;;;22.40;97.90;;;;;;6357549;22;20006;-81
2022/08/15 04:55:14;;;;;;;4.82;4.40;;;22.40;97.90;;;;;;6367669;22;20003;-80
2022/08/15 04:57:40;;;;;;;5.60;4.18;;;22.40;97.60;;;;;;6369887;22;20010;-80
2022/08/15 05:00:11;;;;;;;9.18;5.07;;;22.40;97.60;;;;;;6369597;22;20058;-82
2022/08/15 05:02:38;;;;;;;6.90;4.03;;;22.50;97.40;;;;;;6369279;22;20008;-81
2022/08/15 05:05:05;;;;;;;4.82;4.43;;;22.30;97.60;;;;;;6369901;22;19994;-82
2022/08/15 05:07:31;;;;;;;5.10;4.30;;;22.50;97.20;;;;;;6368631;22;20003;-82
2022/08/15 05:09:58;;;;;;;9.25;4.50;;;22.60;97.00;;;;;;6367583;22;20042;-80
2022/08/15 05:12:24;;;;;;;4.68;4.28;;;22.60;96.80;;;;;;6356782;22;20009;-82
2022/08/15 05:14:52;;;;;;;4.35;3.47;;;22.70;96.90;;;;;;6345037;22;20004;-83
2022/08/15 05:17:18;;;;;;;4.38;3.70;;;22.60;96.90;;;;;;6344722;22;20005;-82
2022/08/15 05:19:43;;;;;;;4.35;3.35;;;22.70;96.80;;;;;;6343005;22;20007;-82
2022/08/15 05:22:09;;;;;;;5.53;3.92;;;22.70;96.60;;;;;;6341429;22;19994;-81
2022/08/15 05:24:35;;;;;;;4.50;3.70;;;22.70;96.60;;;;;;6341242;22;20022;-82
2022/08/15 05:27:01;;;;;;;4.05;2.97;;;22.70;96.80;;;;;;6341956;22;20034;-81
2022/08/15 05:29:27;;;;;;;4.43;3.50;;;22.70;97.10;;;;;;6341053;22;20002;-81
2022/08/15 05:31:53;;;;;;;4.28;3.60;;;22.80;96.70;;;;;;6341503;22;20003;-81
2022/08/15 05:34:19;;;;;;;5.78;3.90;;;22.80;96.40;;;;;;6342330;22;20048;-82
2022/08/15 05:36:49;;;;;;;4.80;3.72;;;22.90;96.30;;;;;;6341170;22;20419;-81
2022/08/15 05:39:25;;;;;;;5.15;3.80;;;22.90;96.00;;;;;;6342424;22;20007;-82
2022/08/15 05:42:12;;;;;;;3.90;3.17;;;23.00;95.80;;;;;;6340794;22;19999;-82
2022/08/15 05:45:06;;;;;;;4.32;3.50;;;23.20;95.50;;;;;;6339710;22;20010;-81
2022/08/15 05:47:35;;;;;;;6.07;3.53;;;23.20;95.10;;;;;;6339487;22;20003;-82
2022/08/15 05:50:23;;;;;;;5.90;3.23;;;23.30;95.10;;;;;;6339732;22;20002;-81
2022/08/15 05:53:07;;;;;;;4.75;3.60;;;23.30;94.90;;;;;;6340019;22;20003;-80
2022/08/15 05:55:57;;;;;;;5.82;4.18;;;23.30;94.20;;;;;;6339600;22;20327;-80
2022/08/15 05:58:31;;;;;;;;;;;23.40;94.50;;;;;;6338224;22;19999;-82
2022/08/15 06:01:12;;;;;;;5.60;3.80;;;23.40;94.60;;;;;;6338418;22;19906;-81
2022/08/15 06:03:38;;;;;;;;;;;23.40;94.40;;;;;;6339287;22;20010;-82
2022/08/15 06:06:11;;;;;;;4.68;3.10;;;23.40;94.50;;;;;;6337812;22;19899;-83
2022/08/15 06:08:48;;;;;;;3.70;3.40;;;23.40;94.90;;;;;;6339005;22;20053;-82
2022/08/15 06:11:19;;;;;;;3.60;3.28;;;23.40;95.00;;;;;;6341971;22;20315;-82
2022/08/15 06:14:09;;;;;;;8.02;3.85;;;23.40;94.90;;;;;;6338397;22;20007;-82
2022/08/15 06:16:50;;;;;;;8.27;3.28;;;23.40;94.80;;;;;;6337084;22;19999;-80
2022/08/15 06:19:26;;;;;;;8.50;3.08;;;23.50;94.50;;;;;;6337308;22;20534;-82
2022/08/15 06:22:08;;;;;;;5.97;3.55;;;23.60;94.20;;;;;;6338462;22;20081;-81
2022/08/15 06:24:46;;;;;;;3.85;2.97;;;23.50;94.30;;;;;;6339111;22;20010;-81
2022/08/15 06:27:23;;;;;;;3.50;3.20;;;23.50;94.10;;;;;;6338676;22;20002;-83
2022/08/15 06:30:09;;;;;;;4.45;3.30;;;23.60;94.20;;;;;;6338293;22;20340;-81
2022/08/15 06:32:44;;;;;;;3.70;3.15;;;23.60;94.40;;;;;;6337725;22;20052;-81
2022/08/15 06:35:28;;;;;;;6.55;3.50;;;23.70;94.90;;;;;;6338030;22;20007;-82
2022/08/15 06:38:17;;;;;;;7.28;3.10;;;23.80;94.70;;;;;;6336642;22;20430;-82
2022/08/15 06:41:23;;;;;;;4.10;3.20;;;23.80;94.80;;;;;;6336661;22;20030;-81
2022/08/15 06:43:49;;;;;;;4.10;3.00;;;24.00;94.80;;;;;;6320405;22;20010;-82
2022/08/15 06:46:16;;;;;;;4.78;3.58;;;24.00;94.90;;;;;;6337020;22;20082;-83
2022/08/15 06:48:43;;;;;;;3.67;3.38;;;24.10;94.60;;;;;;6337115;22;19999;-83
2022/08/15 06:51:11;;;;;;;6.47;3.75;;;24.20;94.60;;;;;;6338721;22;20022;-83
2022/08/15 06:53:44;;;;;;;7.47;3.97;;;24.30;94.80;;;;;;6340641;22;20006;-82
2022/08/15 06:56:33;;;;;;;6.38;3.95;;;24.40;94.50;;;;;;6340372;22;19995;-82
2022/08/15 06:59:13;;;;;;;6.63;3.60;;;24.50;94.20;;;;;;6338832;22;20052;-81
2022/08/15 07:02:09;;;;;;;3.42;3.13;;;24.60;94.40;;;;;;6338172;22;20425;-80
2022/08/15 07:04:55;;;;;;;3.92;3.53;;;24.70;94.10;;;;;;6339031;22;20058;-77
2022/08/15 07:07:45;;;;;;;3.92;3.60;;;24.70;94.00;;;;;;6338946;22;20032;-82
2022/08/15 07:10:23;;;;;;;4.10;3.40;;;24.80;93.90;;;;;;6338456;22;20040;-82
2022/08/15 07:13:02;;;;;;;3.40;3.10;;;24.80;94.20;;;;;;6342167;22;20002;-83
2022/08/15 07:15:52;;;;;;;6.72;3.47;;;24.90;94.00;;;;;;6338524;22;19998;-82
2022/08/15 07:18:39;;;;;;;5.93;3.75;;;24.80;93.60;;;;;;6340594;22;20002;-82
2022/08/15 07:21:09;;;;;;;5.15;3.15;;;24.70;93.50;;;;;;6343025;22;20010;-83
2022/08/15 07:23:38;;;;;;;4.78;3.88;;;24.50;94.00;;;;;;6339709;22;20007;-82
2022/08/15 07:26:10;;;;;;;5.80;3.55;;;24.40;94.30;;;;;;6340633;22;20002;-74
2022/08/15 07:28:38;;;;;;;5.30;3.92;;;24.30;94.70;;;;;;6336751;22;20038;-83
2022/08/15 07:31:18;;;;;;;5.60;4.05;;;24.20;94.90;;;;;;6338172;22;20003;-80
2022/08/15 07:33:47;;;;;;;9.23;4.72;;;24.10;95.50;;;;;;6338930;22;20070;-78
2022/08/15 07:36:12;;;;;;;10.68;5.00;;;24.00;96.00;;;;;;6338067;22;20005;-78
2022/08/15 07:38:38;;;;;;;9.77;4.10;;;24.10;96.00;;;;;;6338390;22;20030;-81
2022/08/15 07:41:14;;;;;;;6.65;4.55;;;24.00;96.20;;;;;;6338811;22;20011;-76
2022/08/15 07:43:39;;;;;;;6.72;4.00;;;24.00;96.60;;;;;;6336944;22;20427;-79
2022/08/15 07:46:13;;;;;;;6.10;4.78;;;24.00;96.80;;;;;;6337991;22;20051;-80
2022/08/15 07:48:39;;;;;;;6.28;5.05;;;24.10;96.60;;;;;;6337887;22;20518;-80
2022/08/15 07:51:09;;;;;;;6.20;4.55;;;24.20;97.10;;;;;;6337210;22;20014;-81
2022/08/15 07:53:57;;;;;;;5.20;4.28;;;24.30;97.60;;;;;;6339170;22;20003;-78
2022/08/15 07:56:25;;;;;;;6.00;4.70;;;24.50;98.10;;;;;;6338505;22;20002;-80
2022/08/15 07:59:16;;;;;;;7.80;4.47;;;24.70;97.30;;;;;;6337614;22;20002;-80
2022/08/15 08:01:46;;;;;;;8.20;5.82;;;25.00;97.10;;;;;;6338663;22;20010;-79
2022/08/15 08:04:19;;;;;;;6.70;4.90;;;25.30;96.40;;;;;;6338089;22;20083;-82
2022/08/15 08:06:56;;;;;;;16.23;5.72;;;25.40;95.80;;;;;;6338783;22;20450;-78
2022/08/15 08:09:44;;;;;;;5.63;5.13;;;25.60;95.80;;;;;;6338409;22;20052;-79
2022/08/15 08:12:30;;;;;;;8.40;5.28;;;25.80;95.80;;;;;;6336864;22;20427;-79
2022/08/15 08:15:18;;;;;;;6.72;5.90;;;25.90;95.30;;;;;;6338255;22;20070;-78
2022/08/15 08:18:04;;;;;;;7.55;4.82;;;26.10;94.60;;;;;;6339021;22;20030;-78
2022/08/15 08:20:51;;;;;;;6.30;5.22;;;26.20;94.60;;;;;;6337489;22;20064;-78
2022/08/15 08:23:29;;;;;;;5.57;4.65;;;26.20;94.50;;;;;;6338387;22;20034;-79
2022/08/15 08:26:14;;;;;;;6.68;5.20;;;26.40;94.40;;;;;;6338045;22;20010;-78
2022/08/15 08:28:58;;;;;;;6.45;5.78;;;26.40;94.30;;;;;;6338240;22;20003;-78
2022/08/15 08:31:36;;;;;;;6.93;6.32;;;26.60;93.80;;;;;;6337998;22;20326;-77
2022/08/15 08:34:05;;;;;;;7.10;6.40;;;26.80;93.60;;;;;;6337594;22;19995;-79
2022/08/15 08:37:03;;;;;;;6.95;6.10;;;27.00;93.40;;;;;;6337311;22;19999;-79
2022/08/15 08:39:31;;;;;;;12.63;7.30;;;27.10;93.40;;;;;;6336102;22;20383;-80
2022/08/15 08:42:27;;;;;;;8.25;7.50;;;27.20;93.20;;;;;;6337178;22;20003;-81
2022/08/15 08:45:15;;;;;;;11.02;7.10;;;27.20;93.20;;;;;;6338436;22;20360;-80
2022/08/15 08:48:16;;;;;;;7.75;7.15;;;27.10;92.90;;;;;;6337078;22;19999;-80
2022/08/15 08:51:15;;;;;;;8.40;7.03;;;27.00;93.20;;;;;;6297635;22;20369;-80
2022/08/15 08:54:01;;;;;;;9.25;8.35;;;26.90;93.20;;;;;;6336846;22;19998;-80
2022/08/15 08:56:45;;;;;;;7.70;7.00;;;26.70;93.60;;;;;;6337457;22;20077;-79
2022/08/15 08:59:24;;;;;;;9.70;8.80;;;26.60;93.30;;;;;;6337536;22;20045;-80
2022/08/15 09:01:57;;;;;;;11.93;7.20;;;26.50;93.10;;;;;;6337179;22;20448;-79
2022/08/15 09:04:38;;;;;;;9.55;8.60;;;26.40;93.70;;;;;;6337824;22;20044;-78
2022/08/15 09:07:07;;;;;;;8.00;7.25;;;26.40;93.70;;;;;;6338641;22;20009;-78
2022/08/15 09:09:36;;;;;;;11.10;8.25;;;26.30;94.30;;;;;;6338357;22;20359;-79
2022/08/15 09:14:54;;;;;;;10.68;9.57;;;26.40;94.30;;;;;;6339079;22;20010;-81
2022/08/15 09:17:23;;;;;;;10.50;9.60;;;26.60;93.70;;;;;;6339398;22;20423;-79
2022/08/15 09:19:55;;;;;;;11.40;10.32;;;26.70;93.70;;;;;;6339401;22;20011;-79
2022/08/15 09:22:20;;;;;;;11.80;9.20;;;26.60;93.30;;;;;;6338900;22;19999;-79
2022/08/15 09:24:46;;;;;;;12.35;8.35;;;26.60;93.50;;;;;;6339239;22;20098;-78
2022/08/15 09:27:22;;;;;;;9.13;6.82;;;26.70;93.50;;;;;;6339104;22;20041;-77
2022/08/15 09:29:57;;;;;;;10.43;7.85;;;26.80;93.80;;;;;;6338957;22;20010;-78
2022/08/15 09:32:29;;;;;;;9.70;8.80;;;27.00;93.80;;;;;;6340348;22;20007;-78
2022/08/15 09:35:07;;;;;;;9.95;8.75;;;27.10;93.50;;;;;;6341221;22;20085;-79
2022/08/15 09:37:51;;;;;;;10.55;7.95;;;27.10;93.60;;;;;;6341323;22;20055;-79
2022/08/15 09:40:46;;;;;;;8.95;8.05;;;27.10;93.40;;;;;;6339586;22;20034;-79
2022/08/15 09:43:11;;;;;;;11.90;9.30;;;27.20;93.50;;;;;;6316596;22;19999;-80
2022/08/15 09:45:55;;;;;;;14.93;11.60;;;27.20;93.50;;;;;;6340160;22;20030;-81
2022/08/15 09:49:00;;;;;;;11.63;9.80;;;27.20;93.30;;;;;;6339329;22;20443;-79
2022/08/15 09:51:42;;;;;;;11.20;8.82;;;27.10;93.60;;;;;;6337665;22;20362;-79
2022/08/15 09:54:23;;;;;;;11.05;9.20;;;27.10;93.70;;;;;;6340024;22;20003;-82
2022/08/15 09:57:18;;;;;;;11.90;10.68;;;27.10;94.40;;;;;;6340193;22;20074;-82
2022/08/15 09:59:44;;;;;;;11.52;9.85;;;27.40;93.90;;;;;;6338744;22;20011;-79
2022/08/15 10:02:15;;;;;;;11.05;9.10;;;27.10;93.70;;;;;;6336609;22;20034;-80
2022/08/15 10:04:54;;;;;;;10.05;9.15;;;27.20;93.70;;;;;;6337012;22;20293;-81
2022/08/15 10:07:31;;;;;;;11.52;10.20;;;27.20;93.60;;;;;;6337536;22;20003;-81
2022/08/15 10:10:00;;;;;;;10.15;9.13;;;27.30;94.00;;;;;;6338519;22;20000;-80
2022/08/15 10:12:27;;;;;;;10.70;9.80;;;27.30;93.70;;;;;;6310882;22;20311;-81
2022/08/15 10:14:52;;;;;;;10.73;9.60;;;27.40;93.60;;;;;;6340863;22;20034;-80
2022/08/15 10:17:34;;;;;;;9.63;8.73;;;27.50;93.50;;;;;;6310091;22;20082;-79
2022/08/15 10:20:40;;;;;;;11.75;10.32;;;27.50;93.30;;;;;;6348296;22;20030;-82
2022/08/15 10:23:13;;;;;;;14.43;9.00;;;27.60;92.90;;;;;;6253557;23;20004;-79
2022/08/15 10:26:08;;;;;;;15.52;7.95;;;27.60;91.80;;;;;;6295106;22;20037;-80
2022/08/15 10:28:36;;;;;;;10.82;9.40;;;27.60;92.00;;;;;;6300249;22;20096;-79
2022/08/15 10:31:05;;;;;;;9.38;8.48;;;27.70;91.30;;;;;;6301420;22;19999;-81
2022/08/15 10:33:30;;;;;;;12.63;8.85;;;27.60;91.20;;;;;;6299330;22;19983;-80
2022/08/15 10:36:14;;;;;;;15.50;9.48;;;27.50;91.40;;;;;;6300062;22;20014;-80
2022/08/15 10:38:46;;;;;;;11.00;8.65;;;27.30;91.40;;;;;;6301879;22;20034;-81
2022/08/15 10:41:27;;;;;;;9.73;8.73;;;27.20;92.00;;;;;;6299912;22;20006;-80
2022/08/15 10:44:23;;;;;;;8.65;7.95;;;27.30;92.00;;;;;;6291424;22;20020;-81
2022/08/15 10:47:23;;;;;;;8.50;7.53;;;27.30;91.80;;;;;;6275995;22;20004;-81
2022/08/15 10:50:08;;;;;;;;;;;27.30;91.90;;;;;;6276061;22;20011;-82
2022/08/15 10:52:42;;;;;;;8.48;7.72;;;27.50;91.90;;;;;;6276006;22;20308;-81
2022/08/15 10:55:23;;;;;;;10.23;8.27;;;27.60;91.60;;;;;;6276767;22;20000;-81
2022/08/15 10:57:55;;;;;;;10.32;6.97;;;27.80;91.40;;;;;;6278519;22;20066;-81
2022/08/15 11:00:45;;;;;;;12.82;6.40;;;27.80;91.60;;;;;;6276527;22;20015;-81
2022/08/15 11:03:20;;;;;;;8.57;7.78;;;27.90;91.10;;;;;;6276974;22;20004;-81
2022/08/15 11:06:03;;;;;;;7.30;6.55;;;28.00;91.20;;;;;;6277196;22;20090;-82
2022/08/15 11:08:29;;;;;;;12.88;8.38;;;28.10;91.50;;;;;;6276363;22;20030;-81
2022/08/15 11:11:07;;;;;;;8.18;6.45;;;28.10;90.90;;;;;;6276479;22;20010;-80
2022/08/15 11:13:35;;;;;;;12.50;7.70;;;28.10;91.20;;;;;;6275317;22;19999;-79
2022/08/15 11:16:17;;;;;;;9.93;8.93;;;28.00;91.10;;;;;;6274769;22;20072;-80
2022/08/15 11:18:53;;;;;;;10.93;7.25;;;28.00;90.90;;;;;;6275529;22;20471;-81
2022/08/15 11:21:30;;;;;;;8.45;7.57;;;27.90;91.50;;;;;;6277435;22;20292;-81
2022/08/15 11:24:01;;;;;;;7.85;7.15;;;27.80;91.90;;;;;;6300134;22;20011;-81
2022/08/15 11:26:32;;;;;;;10.43;7.50;;;27.70;92.10;;;;;;6339614;22;20315;-82
2022/08/15 11:29:18;;;;;;;10.00;7.35;;;27.70;91.90;;;;;;6338839;22;20006;-80
2022/08/15 11:31:51;;;;;;;10.90;8.48;;;27.70;91.70;;;;;;6338050;22;20003;-80
2022/08/15 11:34:20;;;;;;;10.27;7.43;;;27.80;91.60;;;;;;6337728;22;20007;-81
2022/08/15 11:36:47;;;;;;;6.57;5.97;;;27.80;91.80;;;;;;6337036;22;20081;-81
2022/08/15 11:39:16;;;;;;;11.63;7.65;;;27.80;91.90;;;;;;6337281;22;20014;-81
2022/08/15 11:41:53;;;;;;;9.07;7.05;;;27.80;91.80;;;;;;6338200;22;20007;-81
2022/08/15 11:44:21;;;;;;;8.05;6.75;;;27.90;91.90;;;;;;6336806;22;20070;-80
2022/08/15 11:46:47;;;;;;;11.82;9.57;;;27.90;91.90;;;;;;6337554;22;20068;-80
2022/08/15 11:49:43;;;;;;;14.93;9.75;;;28.00;91.40;;;;;;6336739;22;19990;-81
2022/08/15 11:52:09;;;;;;;20.15;10.55;;;27.90;91.50;;;;;;6336446;22;19998;-82
2022/08/15 11:54:35;;;;;;;16.30;9.88;;;27.90;91.80;;;;;;6338388;22;20014;-82
2022/08/15 11:57:07;;;;;;;15.35;8.15;;;28.00;91.70;;;;;;6340016;22;20002;-80
2022/08/15 11:59:55;;;;;;;11.07;9.30;;;28.10;91.90;;;;;;6340329;22;20022;-79
2022/08/15 12:02:21;;;;;;;14.18;10.40;;;28.20;91.90;;;;;;6337965;22;20300;-78
2022/08/15 12:04:48;;;;;;;29.60;13.57;;;28.30;91.20;;;;;;6337044;22;20009;-81
2022/08/15 12:07:29;;;;;;;23.08;11.45;;;28.30;91.40;;;;;;6337750;22;20010;-81
2022/08/15 12:10:06;;;;;;;26.58;11.35;;;28.30;91.40;;;;;;6337405;22;20042;-80
2022/08/15 12:12:51;;;;;;;10.75;9.63;;;28.50;91.50;;;;;;6336603;22;19999;-81
2022/08/15 12:15:20;;;;;;;19.80;13.15;;;28.70;91.20;;;;;;6338133;22;20022;-81
2022/08/15 12:18:32;;;;;;;10.27;8.93;;;28.80;90.90;;;;;;6337015;22;20070;-81
2022/08/15 12:21:01;;;;;;;12.00;9.85;;;29.00;91.20;;;;;;6337368;22;20373;-81
2022/08/15 12:23:30;;;;;;;11.70;10.65;;;29.20;90.80;;;;;;6336313;22;20423;-81
2022/08/15 12:26:11;;;;;;;14.18;10.25;;;29.30;90.60;;;;;;6337157;22;20381;-80
2022/08/15 12:28:38;;;;;;;13.60;9.00;;;29.30;90.40;;;;;;6337161;22;20026;-83
2022/08/15 12:31:22;;;;;;;15.10;11.90;;;29.30;90.70;;;;;;6337590;22;20445;-80
2022/08/15 12:34:00;;;;;;;10.05;9.05;;;29.40;90.70;;;;;;6337592;22;19998;-82
2022/08/15 12:36:27;;;;;;;13.82;10.93;;;29.40;90.20;;;;;;6337677;22;19999;-80
2022/08/15 12:38:52;;;;;;;12.38;11.18;;;29.60;89.60;;;;;;6335917;22;20011;-79
2022/08/15 12:41:19;;;;;;;14.02;12.73;;;29.70;89.50;;;;;;6338553;22;20046;-79
2022/08/15 12:43:45;;;;;;;13.85;10.93;;;29.70;88.90;;;;;;6336286;22;20312;-80
2022/08/15 12:46:10;;;;;;;12.70;10.98;;;29.60;89.90;;;;;;6339475;22;19999;-81
2022/08/15 12:48:39;;;;;;;14.35;12.82;;;29.60;90.00;;;;;;6340000;22;20025;-81
2022/08/15 12:51:07;;;;;;;15.57;13.65;;;29.60;90.30;;;;;;6339891;22;20045;-80
2022/08/15 12:53:33;;;;;;;16.60;14.65;;;29.50;90.60;;;;;;6337665;22;20007;-81
2022/08/15 12:55:59;;;;;;;16.65;12.95;;;29.30;90.50;;;;;;6338303;22;20445;-81
2022/08/15 12:58:25;;;;;;;13.13;11.93;;;29.20;90.60;;;;;;6339721;22;20007;-80
2022/08/15 13:00:53;;;;;;;13.77;12.15;;;29.00;90.50;;;;;;6339313;22;20503;-80
2022/08/15 13:03:23;;;;;;;18.35;14.82;;;28.90;90.90;;;;;;6339618;22;20300;-80
2022/08/15 13:05:55;;;;;;;14.88;13.40;;;28.90;90.50;;;;;;6339823;22;20003;-81
2022/08/15 13:08:21;;;;;;;15.10;12.27;;;28.90;90.80;;;;;;6338786;22;19998;-80
2022/08/15 13:10:46;;;;;;;13.13;11.77;;;28.90;90.80;;;;;;6339354;22;20028;-81
2022/08/15 13:13:12;;;;;;;17.63;14.95;;;29.00;90.70;;;;;;6339195;22;20007;-81
2022/08/15 13:15:38;;;;;;;18.98;11.52;;;29.10;90.50;;;;;;6338625;22;20002;-81
2022/08/15 13:18:04;;;;;;;13.50;10.85;;;29.10;90.70;;;;;;6338942;22;20397;-79